sensor_id;sensor_type;location;lat;lon;timestamp;pressure;altitude;pressure_sealevel;temperature;humidity
15678;BME280;7939;50.814;6.368;2023-05-14T00:00:50;100172.19;;;17.77;55.68
15678;BME280;7939;50.814;6.368;2023-05-14T00:03:16;100166.22;;;17.75;55.96
15678;BME280;7939;50.814;6.368;2023-05-14T00:05:45;100168.84;;;17.72;55.57
15678;BME280;7939;50.814;6.368;2023-05-14T00:08:11;100165.44;;;17.70;55.82
15678;BME280;7939;50.814;6.368;2023-05-14T00:10:38;100157.72;;;17.68;55.58
15678;BME280;7939;50.814;6.368;2023-05-14T00:13:05;100166.38;;;17.67;55.99
15678;BME280;7939;50.814;6.368;2023-05-14T00:15:32;100162.94;;;17.65;55.93
15678;BME280;7939;50.814;6.368;2023-05-14T00:17:59;100172.44;;;17.65;56.02
15678;BME280;7939;50.814;6.368;2023-05-14T00:20:25;100168.19;;;17.62;55.70
15678;BME280;7939;50.814;6.368;2023-05-14T00:22:53;100173.38;;;17.62;56.11
15678;BME280;7939;50.814;6.368;2023-05-14T00:25:20;100173.41;;;17.61;55.60
15678;BME280;7939;50.814;6.368;2023-05-14T00:27:46;100181.16;;;17.59;55.85
15678;BME280;7939;50.814;6.368;2023-05-14T00:30:13;100172.59;;;17.57;56.37
15678;BME280;7939;50.814;6.368;2023-05-14T00:32:40;100165.75;;;17.56;56.34
15678;BME280;7939;50.814;6.368;2023-05-14T00:35:07;100166.66;;;17.53;56.11
15678;BME280;7939;50.814;6.368;2023-05-14T00:37:33;100166.69;;;17.52;56.36
15678;BME280;7939;50.814;6.368;2023-05-14T00:40:02;100162.41;;;17.51;55.95
15678;BME280;7939;50.814;6.368;2023-05-14T00:42:31;100158.13;;;17.50;56.36
15678;BME280;7939;50.814;6.368;2023-05-14T00:44:57;100164.19;;;17.49;55.83
15678;BME280;7939;50.814;6.368;2023-05-14T00:47:24;100159.91;;;17.48;55.93
15678;BME280;7939;50.814;6.368;2023-05-14T00:49:51;100151.38;;;17.44;56.01
15678;BME280;7939;50.814;6.368;2023-05-14T00:52:18;100153.09;;;17.44;56.54
15678;BME280;7939;50.814;6.368;2023-05-14T00:54:46;100149.66;;;17.43;56.17
15678;BME280;7939;50.814;6.368;2023-05-14T00:57:14;100153.16;;;17.41;56.38
15678;BME280;7939;50.814;6.368;2023-05-14T00:59:41;100142.00;;;17.39;56.56
15678;BME280;7939;50.814;6.368;2023-05-14T01:02:08;100148.91;;;17.38;56.54
15678;BME280;7939;50.814;6.368;2023-05-14T01:04:35;100138.63;;;17.37;56.18
15678;BME280;7939;50.814;6.368;2023-05-14T01:07:09;100144.69;;;17.36;56.65
15678;BME280;7939;50.814;6.368;2023-05-14T01:09:41;100145.56;;;17.33;56.36
15678;BME280;7939;50.814;6.368;2023-05-14T01:12:18;100143.03;;;17.32;56.46
15678;BME280;7939;50.814;6.368;2023-05-14T01:14:53;100139.59;;;17.31;56.55
15678;BME280;7939;50.814;6.368;2023-05-14T01:17:25;100141.34;;;17.31;56.26
15678;BME280;7939;50.814;6.368;2023-05-14T01:19:54;100134.47;;;17.28;56.80
15678;BME280;7939;50.814;6.368;2023-05-14T01:22:22;100130.22;;;17.27;56.38
15678;BME280;7939;50.814;6.368;2023-05-14T01:24:48;100135.41;;;17.25;56.68
15678;BME280;7939;50.814;6.368;2023-05-14T01:27:21;100138.88;;;17.24;56.60
15678;BME280;7939;50.814;6.368;2023-05-14T01:29:58;100123.44;;;17.23;56.84
15678;BME280;7939;50.814;6.368;2023-05-14T01:32:29;100131.19;;;17.21;56.78
15678;BME280;7939;50.814;6.368;2023-05-14T01:34:57;100130.38;;;17.19;56.76
15678;BME280;7939;50.814;6.368;2023-05-14T01:37:28;100129.56;;;17.17;56.93
15678;BME280;7939;50.814;6.368;2023-05-14T01:39:55;100124.41;;;17.17;57.03
15678;BME280;7939;50.814;6.368;2023-05-14T01:42:23;100130.47;;;17.16;56.86
15678;BME280;7939;50.814;6.368;2023-05-14T01:44:51;100124.47;;;17.14;56.56
15678;BME280;7939;50.814;6.368;2023-05-14T01:47:17;100126.19;;;17.14;56.83
15678;BME280;7939;50.814;6.368;2023-05-14T01:49:44;100127.09;;;17.13;56.97
15678;BME280;7939;50.814;6.368;2023-05-14T01:52:10;100129.69;;;17.11;56.79
15678;BME280;7939;50.814;6.368;2023-05-14T01:54:38;100125.44;;;17.09;56.95
15678;BME280;7939;50.814;6.368;2023-05-14T01:57:05;100124.59;;;17.08;56.64
15678;BME280;7939;50.814;6.368;2023-05-14T01:59:31;100124.63;;;17.07;56.65
15678;BME280;7939;50.814;6.368;2023-05-14T02:01:58;100120.34;;;17.06;56.37
15678;BME280;7939;50.814;6.368;2023-05-14T02:04:25;100116.06;;;17.05;57.20
15678;BME280;7939;50.814;6.368;2023-05-14T02:06:52;100112.66;;;17.03;57.24
15678;BME280;7939;50.814;6.368;2023-05-14T02:09:18;100115.22;;;17.03;56.64
15678;BME280;7939;50.814;6.368;2023-05-14T02:11:46;100110.09;;;17.01;56.90
15678;BME280;7939;50.814;6.368;2023-05-14T02:14:13;100110.16;;;16.99;57.15
15678;BME280;7939;50.814;6.368;2023-05-14T02:16:40;100101.59;;;16.97;56.77
15678;BME280;7939;50.814;6.368;2023-05-14T02:19:07;100094.69;;;16.96;57.09
15678;BME280;7939;50.814;6.368;2023-05-14T02:21:34;100093.84;;;16.96;56.73
15678;BME280;7939;50.814;6.368;2023-05-14T02:24:00;100084.41;;;16.95;57.16
15678;BME280;7939;50.814;6.368;2023-05-14T02:26:27;100086.16;;;16.94;56.87
15678;BME280;7939;50.814;6.368;2023-05-14T02:28:54;100081.03;;;16.93;57.08
15678;BME280;7939;50.814;6.368;2023-05-14T02:31:21;100083.66;;;16.91;56.91
15678;BME280;7939;50.814;6.368;2023-05-14T02:33:47;100072.47;;;16.91;56.65
15678;BME280;7939;50.814;6.368;2023-05-14T02:36:14;100069.91;;;16.89;56.92
15678;BME280;7939;50.814;6.368;2023-05-14T02:38:40;100069.09;;;16.87;56.84
15678;BME280;7939;50.814;6.368;2023-05-14T02:41:07;100070.00;;;16.86;57.19
15678;BME280;7939;50.814;6.368;2023-05-14T02:43:34;100072.59;;;16.85;57.23
15678;BME280;7939;50.814;6.368;2023-05-14T02:46:02;100087.25;;;16.83;57.16
15678;BME280;7939;50.814;6.368;2023-05-14T02:48:28;100091.59;;;16.81;56.66
15678;BME280;7939;50.814;6.368;2023-05-14T02:50:55;100092.47;;;16.81;57.07
15678;BME280;7939;50.814;6.368;2023-05-14T02:53:21;100096.81;;;16.79;57.07
15678;BME280;7939;50.814;6.368;2023-05-14T02:55:48;100101.97;;;16.79;57.17
15678;BME280;7939;50.814;6.368;2023-05-14T02:58:14;100097.66;;;16.78;57.12
15678;BME280;7939;50.814;6.368;2023-05-14T03:00:41;100094.28;;;16.76;57.08
15678;BME280;7939;50.814;6.368;2023-05-14T03:03:09;100093.44;;;16.76;57.25
15678;BME280;7939;50.814;6.368;2023-05-14T03:05:35;100092.56;;;16.75;57.05
15678;BME280;7939;50.814;6.368;2023-05-14T03:08:02;100096.03;;;16.74;57.21
15678;BME280;7939;50.814;6.368;2023-05-14T03:10:29;100097.81;;;16.72;57.38
15678;BME280;7939;50.814;6.368;2023-05-14T03:12:57;100091.81;;;16.70;57.28
15678;BME280;7939;50.814;6.368;2023-05-14T03:15:23;100091.81;;;16.68;57.38
15678;BME280;7939;50.814;6.368;2023-05-14T03:17:50;100085.81;;;16.68;57.35
15678;BME280;7939;50.814;6.368;2023-05-14T03:20:18;100097.91;;;16.66;57.44
15678;BME280;7939;50.814;6.368;2023-05-14T03:22:44;100088.44;;;16.66;57.24
15678;BME280;7939;50.814;6.368;2023-05-14T03:25:11;100090.16;;;16.64;57.44
15678;BME280;7939;50.814;6.368;2023-05-14T03:27:38;100086.78;;;16.62;57.35
15678;BME280;7939;50.814;6.368;2023-05-14T03:30:05;100091.94;;;16.62;57.70
15678;BME280;7939;50.814;6.368;2023-05-14T03:32:32;100096.25;;;16.62;57.71
15678;BME280;7939;50.814;6.368;2023-05-14T03:34:59;100091.13;;;16.60;57.46
15678;BME280;7939;50.814;6.368;2023-05-14T03:37:27;100081.66;;;16.59;57.44
15678;BME280;7939;50.814;6.368;2023-05-14T03:39:53;100085.13;;;16.58;57.53
15678;BME280;7939;50.814;6.368;2023-05-14T03:42:20;100081.75;;;16.56;57.30
15678;BME280;7939;50.814;6.368;2023-05-14T03:44:46;100083.47;;;16.56;57.38
15678;BME280;7939;50.814;6.368;2023-05-14T03:47:13;100089.56;;;16.53;57.50
15678;BME280;7939;50.814;6.368;2023-05-14T03:49:39;100086.09;;;16.53;57.30
15678;BME280;7939;50.814;6.368;2023-05-14T03:52:06;100086.09;;;16.53;57.61
15678;BME280;7939;50.814;6.368;2023-05-14T03:54:34;100083.56;;;16.51;57.46
15678;BME280;7939;50.814;6.368;2023-05-14T03:57:00;100083.59;;;16.50;57.59
15678;BME280;7939;50.814;6.368;2023-05-14T03:59:27;100088.78;;;16.48;57.36
15678;BME280;7939;50.814;6.368;2023-05-14T04:01:54;100084.47;;;16.49;57.53
15678;BME280;7939;50.814;6.368;2023-05-14T04:04:20;100076.78;;;16.45;57.47
15678;BME280;7939;50.814;6.368;2023-05-14T04:06:46;100078.47;;;16.46;57.43
15678;BME280;7939;50.814;6.368;2023-05-14T04:09:13;100073.41;;;16.43;57.37
15678;BME280;7939;50.814;6.368;2023-05-14T04:11:41;100077.69;;;16.43;57.30
15678;BME280;7939;50.814;6.368;2023-05-14T04:14:07;100070.84;;;16.42;57.61
15678;BME280;7939;50.814;6.368;2023-05-14T04:16:34;100074.31;;;16.41;57.47
15678;BME280;7939;50.814;6.368;2023-05-14T04:19:02;100077.75;;;16.40;57.55
15678;BME280;7939;50.814;6.368;2023-05-14T04:21:30;100081.16;;;16.40;57.63
15678;BME280;7939;50.814;6.368;2023-05-14T04:23:57;100082.06;;;16.39;57.62
15678;BME280;7939;50.814;6.368;2023-05-14T04:26:23;100076.06;;;16.39;57.55
15678;BME280;7939;50.814;6.368;2023-05-14T04:28:51;100068.34;;;16.37;57.54
15678;BME280;7939;50.814;6.368;2023-05-14T04:31:18;100071.81;;;16.36;57.63
15678;BME280;7939;50.814;6.368;2023-05-14T04:33:45;100076.13;;;16.36;57.47
15678;BME280;7939;50.814;6.368;2023-05-14T04:36:12;100078.69;;;16.36;57.62
15678;BME280;7939;50.814;6.368;2023-05-14T04:38:38;100071.00;;;16.34;57.54
15678;BME280;7939;50.814;6.368;2023-05-14T04:41:05;100075.28;;;16.34;57.48
15678;BME280;7939;50.814;6.368;2023-05-14T04:43:32;100077.84;;;16.35;57.51
15678;BME280;7939;50.814;6.368;2023-05-14T04:46:00;100072.69;;;16.34;57.59
15678;BME280;7939;50.814;6.368;2023-05-14T04:48:27;100076.16;;;16.34;57.59
15678;BME280;7939;50.814;6.368;2023-05-14T04:50:54;100072.69;;;16.34;57.58
15678;BME280;7939;50.814;6.368;2023-05-14T04:53:20;100077.00;;;16.35;57.38
15678;BME280;7939;50.814;6.368;2023-05-14T04:55:47;100080.44;;;16.34;57.87
15678;BME280;7939;50.814;6.368;2023-05-14T04:58:13;100085.63;;;16.32;57.78
15678;BME280;7939;50.814;6.368;2023-05-14T05:00:40;100083.06;;;16.32;57.78
15678;BME280;7939;50.814;6.368;2023-05-14T05:03:08;100078.78;;;16.31;57.71
15678;BME280;7939;50.814;6.368;2023-05-14T05:05:34;100083.94;;;16.31;57.46
15678;BME280;7939;50.814;6.368;2023-05-14T05:08:01;100090.84;;;16.31;57.10
15678;BME280;7939;50.814;6.368;2023-05-14T05:10:27;100083.94;;;16.31;57.68
15678;BME280;7939;50.814;6.368;2023-05-14T05:12:54;100085.66;;;16.31;57.70
15678;BME280;7939;50.814;6.368;2023-05-14T05:15:20;100082.25;;;16.30;57.48
15678;BME280;7939;50.814;6.368;2023-05-14T05:17:47;100081.41;;;16.30;57.93
15678;BME280;7939;50.814;6.368;2023-05-14T05:20:15;100083.97;;;16.30;57.83
15678;BME280;7939;50.814;6.368;2023-05-14T05:22:41;100089.13;;;16.30;57.89
15678;BME280;7939;50.814;6.368;2023-05-14T05:25:08;100089.97;;;16.30;57.71
15678;BME280;7939;50.814;6.368;2023-05-14T05:27:36;100083.97;;;16.30;57.87
15678;BME280;7939;50.814;6.368;2023-05-14T05:30:03;100089.97;;;16.30;58.04
15678;BME280;7939;50.814;6.368;2023-05-14T05:32:30;100087.44;;;16.29;57.89
15678;BME280;7939;50.814;6.368;2023-05-14T05:34:57;100082.25;;;16.30;58.01
15678;BME280;7939;50.814;6.368;2023-05-14T05:37:25;100084.81;;;16.30;57.94
15678;BME280;7939;50.814;6.368;2023-05-14T05:39:51;100089.09;;;16.31;58.02
15678;BME280;7939;50.814;6.368;2023-05-14T05:42:18;100086.50;;;16.31;57.86
15678;BME280;7939;50.814;6.368;2023-05-14T05:44:45;100089.09;;;16.31;57.96
15678;BME280;7939;50.814;6.368;2023-05-14T05:47:11;100088.22;;;16.32;57.94
15678;BME280;7939;50.814;6.368;2023-05-14T05:49:38;100083.06;;;16.32;57.93
15678;BME280;7939;50.814;6.368;2023-05-14T05:52:05;100083.06;;;16.32;58.13
15678;BME280;7939;50.814;6.368;2023-05-14T05:54:34;100083.00;;;16.34;58.09
15678;BME280;7939;50.814;6.368;2023-05-14T05:57:00;100086.47;;;16.34;57.94
15678;BME280;7939;50.814;6.368;2023-05-14T05:59:27;100086.47;;;16.34;58.02
15678;BME280;7939;50.814;6.368;2023-05-14T06:01:54;100084.75;;;16.35;58.06
15678;BME280;7939;50.814;6.368;2023-05-14T06:04:21;100084.75;;;16.35;58.26
15678;BME280;7939;50.814;6.368;2023-05-14T06:06:47;100082.16;;;16.35;58.27
15678;BME280;7939;50.814;6.368;2023-05-14T06:09:14;100088.16;;;16.35;58.26
15678;BME280;7939;50.814;6.368;2023-05-14T06:11:42;100090.72;;;16.37;58.11
15678;BME280;7939;50.814;6.368;2023-05-14T06:14:09;100091.59;;;16.36;58.43
15678;BME280;7939;50.814;6.368;2023-05-14T06:16:36;100085.53;;;16.38;58.25
15678;BME280;7939;50.814;6.368;2023-05-14T06:19:02;100096.72;;;16.37;58.45
15678;BME280;7939;50.814;6.368;2023-05-14T06:21:29;100105.28;;;16.39;58.81
15678;BME280;7939;50.814;6.368;2023-05-14T06:23:55;100099.25;;;16.39;58.72
15678;BME280;7939;50.814;6.368;2023-05-14T06:26:22;100094.94;;;16.39;58.69
15678;BME280;7939;50.814;6.368;2023-05-14T06:28:50;100102.69;;;16.39;58.63
15678;BME280;7939;50.814;6.368;2023-05-14T06:31:17;100104.38;;;16.40;58.59
15678;BME280;7939;50.814;6.368;2023-05-14T06:33:44;100102.69;;;16.41;58.63
15678;BME280;7939;50.814;6.368;2023-05-14T06:36:11;100101.81;;;16.42;59.29
15678;BME280;7939;50.814;6.368;2023-05-14T06:38:37;100092.28;;;16.44;59.06
15678;BME280;7939;50.814;6.368;2023-05-14T06:41:04;100104.31;;;16.45;59.10
15678;BME280;7939;50.814;6.368;2023-05-14T06:43:30;100101.72;;;16.45;59.17
15678;BME280;7939;50.814;6.368;2023-05-14T06:45:58;100099.09;;;16.48;58.87
15678;BME280;7939;50.814;6.368;2023-05-14T06:48:25;100101.69;;;16.48;59.19
15678;BME280;7939;50.814;6.368;2023-05-14T06:50:53;100099.06;;;16.50;59.23
15678;BME280;7939;50.814;6.368;2023-05-14T06:53:20;100100.78;;;16.51;59.30
15678;BME280;7939;50.814;6.368;2023-05-14T06:55:47;100095.59;;;16.51;59.14
15678;BME280;7939;50.814;6.368;2023-05-14T06:58:14;100099.88;;;16.53;59.21
15678;BME280;7939;50.814;6.368;2023-05-14T07:00:40;100105.03;;;16.53;59.27
15678;BME280;7939;50.814;6.368;2023-05-14T07:03:08;100096.41;;;16.53;59.23
15678;BME280;7939;50.814;6.368;2023-05-14T07:05:35;100099.88;;;16.53;59.26
15678;BME280;7939;50.814;6.368;2023-05-14T07:08:01;100089.53;;;16.55;58.91
15678;BME280;7939;50.814;6.368;2023-05-14T07:10:28;100093.78;;;16.56;59.37
15678;BME280;7939;50.814;6.368;2023-05-14T07:12:55;100093.75;;;16.57;59.01
15678;BME280;7939;50.814;6.368;2023-05-14T07:15:21;100093.69;;;16.62;59.33
15678;BME280;7939;50.814;6.368;2023-05-14T07:17:48;100091.06;;;16.63;59.04
15678;BME280;7939;50.814;6.368;2023-05-14T07:20:15;100095.38;;;16.63;59.61
15678;BME280;7939;50.814;6.368;2023-05-14T07:22:42;100091.81;;;16.68;59.58
15678;BME280;7939;50.814;6.368;2023-05-14T07:25:09;100097.84;;;16.69;59.48
15678;BME280;7939;50.814;6.368;2023-05-14T07:27:35;100092.66;;;16.70;59.55
15678;BME280;7939;50.814;6.368;2023-05-14T07:30:02;100092.66;;;16.72;59.05
15678;BME280;7939;50.814;6.368;2023-05-14T07:32:29;100093.47;;;16.74;59.46
15678;BME280;7939;50.814;6.368;2023-05-14T07:34:55;100086.53;;;16.76;59.84
15678;BME280;7939;50.814;6.368;2023-05-14T07:37:23;100094.22;;;16.79;59.51
15678;BME280;7939;50.814;6.368;2023-05-14T07:39:51;100086.41;;;16.82;59.24
15678;BME280;7939;50.814;6.368;2023-05-14T07:42:17;100086.38;;;16.85;59.22
15678;BME280;7939;50.814;6.368;2023-05-14T07:44:44;100087.09;;;16.90;59.32
15678;BME280;7939;50.814;6.368;2023-05-14T07:47:11;100085.31;;;16.94;59.04
15678;BME280;7939;50.814;6.368;2023-05-14T07:49:37;100091.28;;;16.97;59.37
15678;BME280;7939;50.814;6.368;2023-05-14T07:52:04;100087.72;;;17.02;59.33
15678;BME280;7939;50.814;6.368;2023-05-14T07:54:32;100087.66;;;17.05;59.50
15678;BME280;7939;50.814;6.368;2023-05-14T07:56:58;100087.59;;;17.08;59.70
15678;BME280;7939;50.814;6.368;2023-05-14T07:59:25;100085.75;;;17.13;59.08
15678;BME280;7939;50.814;6.368;2023-05-14T08:01:52;100081.38;;;17.16;59.08
15678;BME280;7939;50.814;6.368;2023-05-14T08:04:18;100090.75;;;17.20;59.17
15678;BME280;7939;50.814;6.368;2023-05-14T08:06:48;100085.53;;;17.23;59.91
15678;BME280;7939;50.814;6.368;2023-05-14T08:09:14;100094.94;;;17.26;59.33
15678;BME280;7939;50.814;6.368;2023-05-14T08:11:43;100092.16;;;17.34;59.53
15678;BME280;7939;50.814;6.368;2023-05-14T08:14:09;100092.06;;;17.38;59.52
15678;BME280;7939;50.814;6.368;2023-05-14T08:16:36;100094.53;;;17.44;60.51
15678;BME280;7939;50.814;6.368;2023-05-14T08:19:02;100093.66;;;17.44;61.23
15678;BME280;7939;50.814;6.368;2023-05-14T08:21:29;100086.66;;;17.49;60.75
15678;BME280;7939;50.814;6.368;2023-05-14T08:23:55;100082.25;;;17.54;60.84
15678;BME280;7939;50.814;6.368;2023-05-14T08:26:22;100092.53;;;17.56;61.09
15678;BME280;7939;50.814;6.368;2023-05-14T08:28:51;100092.34;;;17.63;61.00
15678;BME280;7939;50.814;6.368;2023-05-14T08:31:18;100086.25;;;17.67;60.73
15678;BME280;7939;50.814;6.368;2023-05-14T08:33:44;100080.09;;;17.73;60.36
15678;BME280;7939;50.814;6.368;2023-05-14T08:36:11;100085.22;;;17.74;60.77
15678;BME280;7939;50.814;6.368;2023-05-14T08:38:37;100091.09;;;17.81;60.62
15678;BME280;7939;50.814;6.368;2023-05-14T08:41:05;100080.72;;;17.83;60.68
15678;BME280;7939;50.814;6.368;2023-05-14T08:43:38;100087.47;;;17.88;60.63
15678;BME280;7939;50.814;6.368;2023-05-14T08:46:12;100092.59;;;17.90;59.82
15678;BME280;7939;50.814;6.368;2023-05-14T08:48:41;100087.22;;;17.99;59.74
15678;BME280;7939;50.814;6.368;2023-05-14T08:51:08;100090.59;;;18.01;60.41
15678;BME280;7939;50.814;6.368;2023-05-14T08:53:35;100079.25;;;18.06;60.35
15678;BME280;7939;50.814;6.368;2023-05-14T08:56:04;100084.31;;;18.11;60.13
15678;BME280;7939;50.814;6.368;2023-05-14T08:58:31;100083.41;;;18.12;59.84
15678;BME280;7939;50.814;6.368;2023-05-14T09:00:58;100078.13;;;18.17;59.53
15678;BME280;7939;50.814;6.368;2023-05-14T09:03:26;100078.03;;;18.20;60.27
15678;BME280;7939;50.814;6.368;2023-05-14T09:05:54;100070.94;;;18.26;59.30
15678;BME280;7939;50.814;6.368;2023-05-14T09:08:21;100076.06;;;18.29;60.46
15678;BME280;7939;50.814;6.368;2023-05-14T09:10:48;100073.44;;;18.31;59.87
15678;BME280;7939;50.814;6.368;2023-05-14T09:13:14;100068.16;;;18.34;59.20
15678;BME280;7939;50.814;6.368;2023-05-14T09:15:41;100075.84;;;18.37;59.37
15678;BME280;7939;50.814;6.368;2023-05-14T09:18:08;100078.28;;;18.43;59.56
15678;BME280;7939;50.814;6.368;2023-05-14T09:20:37;100084.13;;;18.50;58.97
15678;BME280;7939;50.814;6.368;2023-05-14T09:23:03;100078.84;;;18.54;59.42
15678;BME280;7939;50.814;6.368;2023-05-14T09:25:31;100081.25;;;18.59;58.82
15678;BME280;7939;50.814;6.368;2023-05-14T09:27:58;100076.03;;;18.62;59.33
15678;BME280;7939;50.814;6.368;2023-05-14T09:30:24;100079.41;;;18.64;58.88
15678;BME280;7939;50.814;6.368;2023-05-14T09:32:52;100068.13;;;18.68;58.48
15678;BME280;7939;50.814;6.368;2023-05-14T09:35:22;100065.41;;;18.71;58.15
15678;BME280;7939;50.814;6.368;2023-05-14T09:37:51;100064.41;;;18.77;58.45
15678;BME280;7939;50.814;6.368;2023-05-14T09:40:19;100061.75;;;18.80;59.13
15678;BME280;7939;50.814;6.368;2023-05-14T09:42:46;100069.41;;;18.83;58.98
15678;BME280;7939;50.814;6.368;2023-05-14T09:45:14;100067.59;;;18.85;59.26
15678;BME280;7939;50.814;6.368;2023-05-14T09:47:41;100067.47;;;18.90;58.68
15678;BME280;7939;50.814;6.368;2023-05-14T09:50:09;100064.81;;;18.93;59.63
15678;BME280;7939;50.814;6.368;2023-05-14T09:52:37;100081.03;;;18.98;59.19
15678;BME280;7939;50.814;6.368;2023-05-14T09:55:06;100070.66;;;18.99;58.96
15678;BME280;7939;50.814;6.368;2023-05-14T09:57:33;100060.25;;;19.01;58.60
15678;BME280;7939;50.814;6.368;2023-05-14T09:59:59;100066.16;;;19.04;58.66
15678;BME280;7939;50.814;6.368;2023-05-14T10:02:32;100071.25;;;19.07;58.63
15678;BME280;7939;50.814;6.368;2023-05-14T10:05:03;100068.56;;;19.10;58.59
15678;BME280;7939;50.814;6.368;2023-05-14T10:07:34;100067.59;;;19.14;58.27
15678;BME280;7939;50.814;6.368;2023-05-14T10:10:07;100069.22;;;19.19;58.49
15678;BME280;7939;50.814;6.368;2023-05-14T10:12:37;100068.25;;;19.21;58.44
15678;BME280;7939;50.814;6.368;2023-05-14T10:15:09;100066.44;;;19.25;58.54
15678;BME280;7939;50.814;6.368;2023-05-14T10:17:40;100061.06;;;19.29;58.02
15678;BME280;7939;50.814;6.368;2023-05-14T10:20:12;100056.66;;;19.33;58.21
15678;BME280;7939;50.814;6.368;2023-05-14T10:22:40;100060.84;;;19.37;58.07
15678;BME280;7939;50.814;6.368;2023-05-14T10:25:09;100063.34;;;19.40;57.90
15678;BME280;7939;50.814;6.368;2023-05-14T10:27:36;100058.94;;;19.42;57.25
15678;BME280;7939;50.814;6.368;2023-05-14T10:30:08;100058.81;;;19.47;57.84
15678;BME280;7939;50.814;6.368;2023-05-14T10:32:36;100062.16;;;19.50;57.12
15678;BME280;7939;50.814;6.368;2023-05-14T10:35:14;100055.97;;;19.54;57.41
15678;BME280;7939;50.814;6.368;2023-05-14T10:37:43;100048.16;;;19.56;56.89
15678;BME280;7939;50.814;6.368;2023-05-14T10:40:11;100055.78;;;19.62;56.86
15678;BME280;7939;50.814;6.368;2023-05-14T10:42:38;100052.28;;;19.63;56.53
15678;BME280;7939;50.814;6.368;2023-05-14T10:45:09;100049.47;;;19.69;57.07
15678;BME280;7939;50.814;6.368;2023-05-14T10:47:38;100047.63;;;19.73;56.71
15678;BME280;7939;50.814;6.368;2023-05-14T10:50:07;100045.78;;;19.76;55.96
15678;BME280;7939;50.814;6.368;2023-05-14T10:52:34;100042.28;;;19.77;56.60
15678;BME280;7939;50.814;6.368;2023-05-14T10:55:03;100033.53;;;19.80;56.23
15678;BME280;7939;50.814;6.368;2023-05-14T10:57:35;100031.69;;;19.83;56.09
15678;BME280;7939;50.814;6.368;2023-05-14T11:00:02;100035.94;;;19.86;55.82
15678;BME280;7939;50.814;6.368;2023-05-14T11:02:33;100028.00;;;19.90;55.65
15678;BME280;7939;50.814;6.368;2023-05-14T11:05:02;100026.16;;;19.94;55.36
15678;BME280;7939;50.814;6.368;2023-05-14T11:07:30;100032.03;;;19.99;55.51
15678;BME280;7939;50.814;6.368;2023-05-14T11:10:02;100027.56;;;20.03;55.55
15678;BME280;7939;50.814;6.368;2023-05-14T11:12:29;100023.28;;;20.02;55.67
15678;BME280;7939;50.814;6.368;2023-05-14T11:14:59;100018.72;;;20.08;55.72
15678;BME280;7939;50.814;6.368;2023-05-14T11:17:27;100009.97;;;20.11;55.31
15678;BME280;7939;50.814;6.368;2023-05-14T11:19:55;100008.00;;;20.17;55.20
15678;BME280;7939;50.814;6.368;2023-05-14T11:22:22;100000.19;;;20.19;55.28
15678;BME280;7939;50.814;6.368;2023-05-14T11:24:49;100005.25;;;20.22;55.27
15678;BME280;7939;50.814;6.368;2023-05-14T11:27:16;100002.50;;;20.27;54.88
15678;BME280;7939;50.814;6.368;2023-05-14T11:29:43;100002.38;;;20.30;54.95
15678;BME280;7939;50.814;6.368;2023-05-14T11:32:13;100004.03;;;20.32;54.67
15678;BME280;7939;50.814;6.368;2023-05-14T11:34:40;99991.69;;;20.39;53.96
15678;BME280;7939;50.814;6.368;2023-05-14T11:37:10;99995.06;;;20.41;54.66
15678;BME280;7939;50.814;6.368;2023-05-14T11:39:38;99988.00;;;20.44;54.85
15678;BME280;7939;50.814;6.368;2023-05-14T11:42:09;99982.69;;;20.49;54.49
15678;BME280;7939;50.814;6.368;2023-05-14T11:44:39;99987.91;;;20.47;53.65
15678;BME280;7939;50.814;6.368;2023-05-14T11:47:06;99981.66;;;20.53;53.20
15678;BME280;7939;50.814;6.368;2023-05-14T11:49:35;99970.31;;;20.56;53.29
15678;BME280;7939;50.814;6.368;2023-05-14T11:52:03;99978.88;;;20.58;53.78
15678;BME280;7939;50.814;6.368;2023-05-14T11:54:31;99973.56;;;20.61;53.67
15678;BME280;7939;50.814;6.368;2023-05-14T11:57:01;99969.22;;;20.61;53.52
15678;BME280;7939;50.814;6.368;2023-05-14T11:59:30;99972.50;;;20.66;53.52
15678;BME280;7939;50.814;6.368;2023-05-14T12:01:57;99968.81;;;20.72;53.60
15678;BME280;7939;50.814;6.368;2023-05-14T12:04:24;99960.00;;;20.76;53.42
15678;BME280;7939;50.814;6.368;2023-05-14T12:06:52;99948.47;;;20.83;53.37
15678;BME280;7939;50.814;6.368;2023-05-14T12:09:19;99949.22;;;20.87;53.20
15678;BME280;7939;50.814;6.368;2023-05-14T12:11:47;99960.44;;;20.87;53.05
15678;BME280;7939;50.814;6.368;2023-05-14T12:14:15;99952.66;;;20.87;53.23
15678;BME280;7939;50.814;6.368;2023-05-14T12:16:43;99952.75;;;20.84;52.92
15678;BME280;7939;50.814;6.368;2023-05-14T12:19:12;99956.13;;;20.86;51.61
15678;BME280;7939;50.814;6.368;2023-05-14T12:21:41;99935.31;;;20.88;51.89
15678;BME280;7939;50.814;6.368;2023-05-14T12:24:10;99936.22;;;20.87;52.41
15678;BME280;7939;50.814;6.368;2023-05-14T12:26:37;99930.03;;;20.89;51.89
15678;BME280;7939;50.814;6.368;2023-05-14T12:29:04;99935.16;;;20.91;51.52
15678;BME280;7939;50.814;6.368;2023-05-14T12:31:32;99928.28;;;20.90;51.08
15678;BME280;7939;50.814;6.368;2023-05-14T12:34:00;99924.78;;;20.91;51.20
15678;BME280;7939;50.814;6.368;2023-05-14T12:36:28;99921.34;;;20.90;51.12
15678;BME280;7939;50.814;6.368;2023-05-14T12:38:59;99915.22;;;20.91;51.04
15678;BME280;7939;50.814;6.368;2023-05-14T12:41:28;99916.03;;;20.93;50.77
15678;BME280;7939;50.814;6.368;2023-05-14T12:43:56;99912.38;;;20.97;50.97
15678;BME280;7939;50.814;6.368;2023-05-14T12:46:24;99908.88;;;20.98;50.86
15678;BME280;7939;50.814;6.368;2023-05-14T12:48:52;99912.38;;;20.97;49.50
15678;BME280;7939;50.814;6.368;2023-05-14T12:51:19;99909.72;;;20.99;48.83
15678;BME280;7939;50.814;6.368;2023-05-14T12:53:45;99907.06;;;21.00;49.04
15678;BME280;7939;50.814;6.368;2023-05-14T12:56:12;99908.88;;;20.98;48.20
15678;BME280;7939;50.814;6.368;2023-05-14T12:58:40;99903.63;;;21.00;48.50
15678;BME280;7939;50.814;6.368;2023-05-14T13:01:07;99891.53;;;20.99;49.39
15678;BME280;7939;50.814;6.368;2023-05-14T13:03:33;99899.22;;;21.02;48.41